sensor_id;sensor_type;location;lat;lon;timestamp;pressure;altitude;pressure_sealevel;temperature;humidity
30682;BME280;17439;48.092;11.842;2022-11-21T00:01:15;94692.97;;;5.91;71.07
30682;BME280;17439;48.092;11.842;2022-11-21T00:03:43;94689.00;;;5.89;70.91
30682;BME280;17439;48.092;11.842;2022-11-21T00:06:10;94667.56;;;5.84;70.88
30682;BME280;17439;48.092;11.842;2022-11-21T00:08:37;94681.53;;;5.86;71.19
30682;BME280;17439;48.092;11.842;2022-11-21T00:11:04;94684.00;;;5.82;71.35
30682;BME280;17439;48.092;11.842;2022-11-21T00:13:32;94690.69;;;5.85;71.36
30682;BME280;17439;48.092;11.842;2022-11-21T00:16:06;94682.59;;;5.85;71.32
30682;BME280;17439;48.092;11.842;2022-11-21T00:18:34;94689.28;;;5.87;71.35
30682;BME280;17439;48.092;11.842;2022-11-21T00:21:19;94686.59;;;5.87;70.91
30682;BME280;17439;48.092;11.842;2022-11-21T00:23:46;94689.78;;;5.89;71.21
30682;BME280;17439;48.092;11.842;2022-11-21T00:26:15;94694.56;;;5.92;71.11
30682;BME280;17439;48.092;11.842;2022-11-21T00:28:42;94696.97;;;5.94;71.10
30682;BME280;17439;48.092;11.842;2022-11-21T00:31:21;94684.00;;;5.96;70.68
30682;BME280;17439;48.092;11.842;2022-11-21T00:33:48;94677.22;;;5.85;70.68
30682;BME280;17439;48.092;11.842;2022-11-21T00:36:15;94676.81;;;5.91;71.07
30682;BME280;17439;48.092;11.842;2022-11-21T00:38:42;94678.44;;;5.92;71.04
30682;BME280;17439;48.092;11.842;2022-11-21T00:41:09;94684.00;;;5.96;70.83
30682;BME280;17439;48.092;11.842;2022-11-21T00:43:36;94676.44;;;5.98;71.07
30682;BME280;17439;48.092;11.842;2022-11-21T00:46:03;94674.88;;;5.97;70.95
30682;BME280;17439;48.092;11.842;2022-11-21T00:48:31;94673.75;;;5.98;70.91
30682;BME280;17439;48.092;11.842;2022-11-21T00:50:58;94671.28;;;6.02;70.93
30682;BME280;17439;48.092;11.842;2022-11-21T00:53:25;94670.47;;;6.01;70.78
30682;BME280;17439;48.092;11.842;2022-11-21T00:55:52;94669.06;;;6.04;70.81
30682;BME280;17439;48.092;11.842;2022-11-21T00:58:19;94661.00;;;6.04;70.75
30682;BME280;17439;48.092;11.842;2022-11-21T01:00:46;94667.69;;;6.06;70.79
30682;BME280;17439;48.092;11.842;2022-11-21T01:03:14;94665.00;;;6.06;70.88
30682;BME280;17439;48.092;11.842;2022-11-21T01:05:41;94668.97;;;6.09;70.80
30682;BME280;17439;48.092;11.842;2022-11-21T01:08:08;94652.53;;;6.10;70.71
30682;BME280;17439;48.092;11.842;2022-11-21T01:10:35;94658.38;;;6.12;70.86
30682;BME280;17439;48.092;11.842;2022-11-21T01:13:02;94661.06;;;6.12;70.66
30682;BME280;17439;48.092;11.842;2022-11-21T01:15:29;94658.38;;;6.12;70.49
30682;BME280;17439;48.092;11.842;2022-11-21T01:17:57;94659.50;;;6.11;70.45
30682;BME280;17439;48.092;11.842;2022-11-21T01:20:24;94652.53;;;6.10;70.26
30682;BME280;17439;48.092;11.842;2022-11-21T01:22:51;94663.16;;;6.15;70.51
30682;BME280;17439;48.092;11.842;2022-11-21T01:25:18;94666.69;;;6.16;70.35
30682;BME280;17439;48.092;11.842;2022-11-21T01:27:45;94662.56;;;6.18;70.39
30682;BME280;17439;48.092;11.842;2022-11-21T01:30:13;94662.28;;;6.20;70.33
30682;BME280;17439;48.092;11.842;2022-11-21T01:32:40;94668.47;;;6.21;70.34
30682;BME280;17439;48.092;11.842;2022-11-21T01:35:07;94670.84;;;6.22;70.40
30682;BME280;17439;48.092;11.842;2022-11-21T01:37:35;94668.66;;;6.24;70.51
30682;BME280;17439;48.092;11.842;2022-11-21T01:40:02;94669.44;;;6.25;70.46
30682;BME280;17439;48.092;11.842;2022-11-21T01:42:43;94654.91;;;6.26;69.42
30682;BME280;17439;48.092;11.842;2022-11-21T01:48:14;94652.19;;;6.26;70.52
30682;BME280;17439;48.092;11.842;2022-11-21T01:50:41;94658.38;;;6.26;70.54
30682;BME280;17439;48.092;11.842;2022-11-21T01:53:08;94651.91;;;6.27;70.53
30682;BME280;17439;48.092;11.842;2022-11-21T01:55:36;94652.69;;;6.28;70.70
30682;BME280;17439;48.092;11.842;2022-11-21T01:58:03;94653.81;;;6.27;70.38
30682;BME280;17439;48.092;11.842;2022-11-21T02:00:34;94660.75;;;6.28;70.48
30682;BME280;17439;48.092;11.842;2022-11-21T02:03:06;94643.53;;;6.29;70.18
30682;BME280;17439;48.092;11.842;2022-11-21T02:05:36;94639.72;;;6.30;70.70
30682;BME280;17439;48.092;11.842;2022-11-21T02:08:09;94637.53;;;6.32;70.21
30682;BME280;17439;48.092;11.842;2022-11-21T02:10:42;94627.25;;;6.34;70.03
30682;BME280;17439;48.092;11.842;2022-11-21T02:13:13;94631.34;;;6.31;70.58
30682;BME280;17439;48.092;11.842;2022-11-21T02:15:41;94624.75;;;6.38;70.67
30682;BME280;17439;48.092;11.842;2022-11-21T02:18:08;94619.34;;;6.38;70.66
30682;BME280;17439;48.092;11.842;2022-11-21T02:20:36;94610.66;;;6.41;70.53
30682;BME280;17439;48.092;11.842;2022-11-21T02:23:21;94611.50;;;6.41;69.74
30682;BME280;17439;48.092;11.842;2022-11-21T02:25:51;94611.97;;;6.43;70.27
30682;BME280;17439;48.092;11.842;2022-11-21T02:28:20;94600.09;;;6.44;70.23
30682;BME280;17439;48.092;11.842;2022-11-21T02:30:47;94614.06;;;6.46;70.23
30682;BME280;17439;48.092;11.842;2022-11-21T02:33:15;94608.66;;;6.46;70.31
30682;BME280;17439;48.092;11.842;2022-11-21T02:35:42;94604.06;;;6.47;70.12
30682;BME280;17439;48.092;11.842;2022-11-21T02:38:20;94607.06;;;6.45;69.10
30682;BME280;17439;48.092;11.842;2022-11-21T02:40:56;94605.16;;;6.46;69.25
30682;BME280;17439;48.092;11.842;2022-11-21T02:43:32;94599.59;;;6.42;68.48
30682;BME280;17439;48.092;11.842;2022-11-21T02:46:01;94598.03;;;6.41;69.75
30682;BME280;17439;48.092;11.842;2022-11-21T02:48:28;94594.81;;;6.39;69.84
30682;BME280;17439;48.092;11.842;2022-11-21T02:50:55;94592.44;;;6.38;69.85
30682;BME280;17439;48.092;11.842;2022-11-21T02:53:23;94591.94;;;6.35;69.90
30682;BME280;17439;48.092;11.842;2022-11-21T02:55:50;94586.09;;;6.33;69.79
30682;BME280;17439;48.092;11.842;2022-11-21T02:58:17;94586.69;;;6.30;69.65
30682;BME280;17439;48.092;11.842;2022-11-21T03:00:44;94576.34;;;6.24;68.78
30682;BME280;17439;48.092;11.842;2022-11-21T03:03:11;94587.28;;;6.27;69.72
30682;BME280;17439;48.092;11.842;2022-11-21T03:05:39;94582.53;;;6.24;69.42
30682;BME280;17439;48.092;11.842;2022-11-21T03:08:07;94591.19;;;6.21;69.63
30682;BME280;17439;48.092;11.842;2022-11-21T03:10:34;94582.63;;;6.19;69.50
30682;BME280;17439;48.092;11.842;2022-11-21T03:13:01;94580.72;;;6.20;69.66
30682;BME280;17439;48.092;11.842;2022-11-21T03:15:32;94589.13;;;6.18;69.50
30682;BME280;17439;48.092;11.842;2022-11-21T03:18:01;94585.63;;;6.17;69.96
30682;BME280;17439;48.092;11.842;2022-11-21T03:20:28;94578.06;;;6.06;68.60
30682;BME280;17439;48.092;11.842;2022-11-21T03:22:56;94568.00;;;6.11;70.07
30682;BME280;17439;48.092;11.842;2022-11-21T03:25:23;94565.00;;;6.13;70.30
30682;BME280;17439;48.092;11.842;2022-11-21T03:27:51;94556.63;;;6.14;70.20
30682;BME280;17439;48.092;11.842;2022-11-21T03:30:22;94558.50;;;6.14;69.36
30682;BME280;17439;48.092;11.842;2022-11-21T03:32:50;94547.75;;;6.14;70.12
30682;BME280;17439;48.092;11.842;2022-11-21T03:35:20;94549.34;;;6.15;69.72
30682;BME280;17439;48.092;11.842;2022-11-21T03:37:47;94558.22;;;6.15;69.80
30682;BME280;17439;48.092;11.842;2022-11-21T03:40:15;94558.22;;;6.15;69.41
30682;BME280;17439;48.092;11.842;2022-11-21T03:42:42;94542.78;;;6.07;69.09
30682;BME280;17439;48.092;11.842;2022-11-21T03:45:09;94541.69;;;6.08;69.24
30682;BME280;17439;48.092;11.842;2022-11-21T03:47:37;94540.63;;;6.09;68.97
30682;BME280;17439;48.092;11.842;2022-11-21T03:50:04;94545.78;;;6.06;68.90
30682;BME280;17439;48.092;11.842;2022-11-21T03:52:31;94542.13;;;6.02;68.69
30682;BME280;17439;48.092;11.842;2022-11-21T03:54:58;94538.91;;;5.99;68.96
30682;BME280;17439;48.092;11.842;2022-11-21T03:57:25;94529.03;;;5.95;68.81
30682;BME280;17439;48.092;11.842;2022-11-21T03:59:52;94531.25;;;5.93;68.94
30682;BME280;17439;48.092;11.842;2022-11-21T04:02:20;94532.97;;;5.89;68.83
30682;BME280;17439;48.092;11.842;2022-11-21T04:04:47;94528.97;;;5.86;68.97
30682;BME280;17439;48.092;11.842;2022-11-21T04:07:14;94527.06;;;5.87;69.10
30682;BME280;17439;48.092;11.842;2022-11-21T04:09:41;94521.22;;;5.85;69.28
30682;BME280;17439;48.092;11.842;2022-11-21T04:12:08;94522.91;;;5.80;69.32
30682;BME280;17439;48.092;11.842;2022-11-21T04:14:35;94524.03;;;5.79;69.39
30682;BME280;17439;48.092;11.842;2022-11-21T04:17:02;94523.19;;;5.79;69.69
30682;BME280;17439;48.092;11.842;2022-11-21T04:19:29;94519.72;;;5.78;69.81
30682;BME280;17439;48.092;11.842;2022-11-21T04:21:57;94520.22;;;5.80;70.17
30682;BME280;17439;48.092;11.842;2022-11-21T04:24:24;94516.13;;;5.83;70.20
30682;BME280;17439;48.092;11.842;2022-11-21T04:26:53;94515.03;;;5.84;70.03
30682;BME280;17439;48.092;11.842;2022-11-21T04:29:20;94508.25;;;5.87;70.31
30682;BME280;17439;48.092;11.842;2022-11-21T04:31:47;94505.47;;;5.92;70.59
30682;BME280;17439;48.092;11.842;2022-11-21T04:34:15;94512.91;;;5.95;70.42
30682;BME280;17439;48.092;11.842;2022-11-21T04:36:42;94513.91;;;5.99;70.47
30682;BME280;17439;48.092;11.842;2022-11-21T04:39:09;94507.94;;;6.02;70.31
30682;BME280;17439;48.092;11.842;2022-11-21T04:41:36;94509.22;;;6.05;69.93
30682;BME280;17439;48.092;11.842;2022-11-21T04:44:03;94503.53;;;6.06;70.21
30682;BME280;17439;48.092;11.842;2022-11-21T04:46:31;94500.72;;;6.11;70.17
30682;BME280;17439;48.092;11.842;2022-11-21T04:48:58;94498.53;;;6.13;69.83
30682;BME280;17439;48.092;11.842;2022-11-21T04:51:25;94507.59;;;6.17;70.04
30682;BME280;17439;48.092;11.842;2022-11-21T04:53:52;94496.22;;;6.21;70.12
30682;BME280;17439;48.092;11.842;2022-11-21T04:56:19;94500.97;;;6.24;69.94
30682;BME280;17439;48.092;11.842;2022-11-21T04:58:46;94488.78;;;6.26;69.69
30682;BME280;17439;48.092;11.842;2022-11-21T05:01:13;94492.47;;;6.30;69.81
30682;BME280;17439;48.092;11.842;2022-11-21T05:03:41;94502.94;;;6.32;69.50
30682;BME280;17439;48.092;11.842;2022-11-21T05:06:08;94490.94;;;6.38;69.49
30682;BME280;17439;48.092;11.842;2022-11-21T05:08:35;94494.91;;;6.41;69.73
30682;BME280;17439;48.092;11.842;2022-11-21T05:11:02;94495.09;;;6.44;69.47
30682;BME280;17439;48.092;11.842;2022-11-21T05:13:29;94493.38;;;6.48;69.67
30682;BME280;17439;48.092;11.842;2022-11-21T05:15:56;94497.66;;;6.49;69.74
30682;BME280;17439;48.092;11.842;2022-11-21T05:18:24;94495.44;;;6.51;69.89
30682;BME280;17439;48.092;11.842;2022-11-21T05:20:51;94475.81;;;6.51;69.63
30682;BME280;17439;48.092;11.842;2022-11-21T05:23:18;94483.59;;;6.52;69.67
30682;BME280;17439;48.092;11.842;2022-11-21T05:25:45;94472.50;;;6.54;69.72
30682;BME280;17439;48.092;11.842;2022-11-21T05:28:12;94470.91;;;6.53;69.70
30682;BME280;17439;48.092;11.842;2022-11-21T05:30:40;94468.53;;;6.51;69.67
30682;BME280;17439;48.092;11.842;2022-11-21T05:33:07;94458.22;;;6.53;69.94
30682;BME280;17439;48.092;11.842;2022-11-21T05:35:34;94463.13;;;6.51;69.89
30682;BME280;17439;48.092;11.842;2022-11-21T05:38:08;94463.91;;;6.52;70.06
30682;BME280;17439;48.092;11.842;2022-11-21T05:40:35;94459.34;;;6.52;70.15
30682;BME280;17439;48.092;11.842;2022-11-21T05:43:03;94460.91;;;6.53;70.01
30682;BME280;17439;48.092;11.842;2022-11-21T05:45:30;94467.72;;;6.51;69.87
30682;BME280;17439;48.092;11.842;2022-11-21T05:47:57;94463.91;;;6.52;69.86
30682;BME280;17439;48.092;11.842;2022-11-21T05:50:24;94466.13;;;6.50;69.91
30682;BME280;17439;48.092;11.842;2022-11-21T05:52:51;94463.75;;;6.48;69.92
30682;BME280;17439;48.092;11.842;2022-11-21T05:55:18;94462.66;;;6.49;70.06
30682;BME280;17439;48.092;11.842;2022-11-21T05:57:45;94468.81;;;6.50;70.13
30682;BME280;17439;48.092;11.842;2022-11-21T06:00:13;94463.75;;;6.48;70.04
30682;BME280;17439;48.092;11.842;2022-11-21T06:02:40;94461.53;;;6.50;70.13
30682;BME280;17439;48.092;11.842;2022-11-21T06:05:07;94465.34;;;6.49;70.21
30682;BME280;17439;48.092;11.842;2022-11-21T06:07:35;94476.13;;;6.49;70.14
30682;BME280;17439;48.092;11.842;2022-11-21T06:10:02;94466.44;;;6.48;70.09
30682;BME280;17439;48.092;11.842;2022-11-21T06:12:30;94470.22;;;6.47;70.03
30682;BME280;17439;48.092;11.842;2022-11-21T06:14:57;94472.59;;;6.49;70.06
30682;BME280;17439;48.092;11.842;2022-11-21T06:17:24;94476.13;;;6.49;70.20
30682;BME280;17439;48.092;11.842;2022-11-21T06:19:51;94483.06;;;6.50;70.38
30682;BME280;17439;48.092;11.842;2022-11-21T06:22:18;94486.28;;;6.52;70.28
30682;BME280;17439;48.092;11.842;2022-11-21T06:24:45;94481.19;;;6.51;70.30
30682;BME280;17439;48.092;11.842;2022-11-21T06:27:13;94483.59;;;6.52;70.25
30682;BME280;17439;48.092;11.842;2022-11-21T06:29:40;94485.16;;;6.53;70.22
30682;BME280;17439;48.092;11.842;2022-11-21T06:32:07;94493.22;;;6.53;70.08
30682;BME280;17439;48.092;11.842;2022-11-21T06:34:34;94493.22;;;6.53;70.08
30682;BME280;17439;48.092;11.842;2022-11-21T06:37:01;94490.53;;;6.53;70.19
30682;BME280;17439;48.092;11.842;2022-11-21T06:39:28;94493.22;;;6.53;70.61
30682;BME280;17439;48.092;11.842;2022-11-21T06:41:55;94494.34;;;6.52;70.53
30682;BME280;17439;48.092;11.842;2022-11-21T06:44:22;94489.44;;;6.54;70.71
30682;BME280;17439;48.092;11.842;2022-11-21T06:46:49;94488.03;;;6.57;70.72
30682;BME280;17439;48.092;11.842;2022-11-21T06:49:17;94495.00;;;6.58;70.77
30682;BME280;17439;48.092;11.842;2022-11-21T06:51:45;94499.78;;;6.61;70.75
30682;BME280;17439;48.092;11.842;2022-11-21T06:54:12;94499.47;;;6.63;70.81
30682;BME280;17439;48.092;11.842;2022-11-21T06:56:43;94503.75;;;6.64;70.79
30682;BME280;17439;48.092;11.842;2022-11-21T06:59:10;94503.44;;;6.65;70.82
30682;BME280;17439;48.092;11.842;2022-11-21T07:01:37;94506.31;;;6.69;70.89
30682;BME280;17439;48.092;11.842;2022-11-21T07:04:04;94517.88;;;6.69;71.05
30682;BME280;17439;48.092;11.842;2022-11-21T07:06:33;94514.56;;;6.72;70.76
30682;BME280;17439;48.092;11.842;2022-11-21T07:09:00;94513.16;;;6.75;71.12
30682;BME280;17439;48.092;11.842;2022-11-21T07:11:47;94526.03;;;6.78;71.03
30682;BME280;17439;48.092;11.842;2022-11-21T07:14:16;94517.31;;;6.81;70.97
30682;BME280;17439;48.092;11.842;2022-11-21T07:16:43;94522.09;;;6.84;71.06
30682;BME280;17439;48.092;11.842;2022-11-21T07:19:10;94512.88;;;6.85;70.93
30682;BME280;17439;48.092;11.842;2022-11-21T07:21:37;94516.88;;;6.88;70.50
30682;BME280;17439;48.092;11.842;2022-11-21T07:24:05;94516.09;;;6.87;70.17
30682;BME280;17439;48.092;11.842;2022-11-21T07:26:32;94519.25;;;6.89;70.18
30682;BME280;17439;48.092;11.842;2022-11-21T07:28:59;94520.84;;;6.90;70.10
30682;BME280;17439;48.092;11.842;2022-11-21T07:31:26;94523.56;;;6.90;70.02
30682;BME280;17439;48.092;11.842;2022-11-21T07:33:53;94530.34;;;6.88;69.65
30682;BME280;17439;48.092;11.842;2022-11-21T07:36:20;94523.66;;;6.85;69.45
30682;BME280;17439;48.092;11.842;2022-11-21T07:38:47;94526.66;;;6.84;69.51
30682;BME280;17439;48.092;11.842;2022-11-21T07:41:14;94538.25;;;6.84;69.28
30682;BME280;17439;48.092;11.842;2022-11-21T07:43:42;94532.38;;;6.82;69.38
30682;BME280;17439;48.092;11.842;2022-11-21T07:46:09;94536.78;;;6.78;69.23
30682;BME280;17439;48.092;11.842;2022-11-21T07:48:36;94543.59;;;6.76;69.23
30682;BME280;17439;48.092;11.842;2022-11-21T07:51:04;94548.78;;;6.72;68.96
30682;BME280;17439;48.092;11.842;2022-11-21T07:53:31;94546.69;;;6.60;68.41
30682;BME280;17439;48.092;11.842;2022-11-21T07:55:58;94553.34;;;6.63;69.21
30682;BME280;17439;48.092;11.842;2022-11-21T07:58:25;94559.03;;;6.61;69.38
30682;BME280;17439;48.092;11.842;2022-11-21T08:00:52;94565.03;;;6.58;69.42
30682;BME280;17439;48.092;11.842;2022-11-21T08:03:20;94566.94;;;6.58;69.49
30682;BME280;17439;48.092;11.842;2022-11-21T08:05:47;94567.22;;;6.56;69.74
30682;BME280;17439;48.092;11.842;2022-11-21T08:08:14;94573.41;;;6.57;70.02
30682;BME280;17439;48.092;11.842;2022-11-21T08:10:44;94570.22;;;6.54;69.52
30682;BME280;17439;48.092;11.842;2022-11-21T08:13:12;94564.22;;;6.58;69.52
30682;BME280;17439;48.092;11.842;2022-11-21T08:15:39;94556.63;;;6.60;69.83
30682;BME280;17439;48.092;11.842;2022-11-21T08:18:14;94559.31;;;6.60;68.92
30682;BME280;17439;48.092;11.842;2022-11-21T08:20:41;94576.00;;;6.62;69.84
30682;BME280;17439;48.092;11.842;2022-11-21T08:23:09;94565.41;;;6.65;70.08
30682;BME280;17439;48.092;11.842;2022-11-21T08:25:37;94572.88;;;6.68;70.11
30682;BME280;17439;48.092;11.842;2022-11-21T08:28:06;94566.88;;;6.71;69.93
30682;BME280;17439;48.092;11.842;2022-11-21T08:30:34;94572.13;;;6.77;70.05
30682;BME280;17439;48.092;11.842;2022-11-21T08:33:02;94572.06;;;6.68;68.54
30682;BME280;17439;48.092;11.842;2022-11-21T08:35:29;94564.53;;;6.79;69.78
30682;BME280;17439;48.092;11.842;2022-11-21T08:37:57;94556.13;;;6.80;69.15
30682;BME280;17439;48.092;11.842;2022-11-21T08:40:27;94564.69;;;6.82;69.23
30682;BME280;17439;48.092;11.842;2022-11-21T08:43:03;94566.91;;;6.80;67.16
30682;BME280;17439;48.092;11.842;2022-11-21T08:45:31;94555.81;;;6.82;69.48
30682;BME280;17439;48.092;11.842;2022-11-21T08:47:58;94560.91;;;6.83;69.24
30682;BME280;17439;48.092;11.842;2022-11-21T08:50:25;94565.81;;;6.81;69.14
30682;BME280;17439;48.092;11.842;2022-11-21T08:52:58;94564.22;;;6.80;68.11
30682;BME280;17439;48.092;11.842;2022-11-21T08:55:25;94568.81;;;6.80;68.89
30682;BME280;17439;48.092;11.842;2022-11-21T08:57:53;94570.38;;;6.81;69.21
30682;BME280;17439;48.092;11.842;2022-11-21T09:00:20;94572.28;;;6.80;69.11
30682;BME280;17439;48.092;11.842;2022-11-21T09:02:47;94567.91;;;6.84;69.37
30682;BME280;17439;48.092;11.842;2022-11-21T09:05:14;94569.34;;;6.90;69.60
30682;BME280;17439;48.092;11.842;2022-11-21T09:07:41;94553.50;;;6.89;68.69
30682;BME280;17439;48.092;11.842;2022-11-21T09:10:09;94568.22;;;6.92;68.98
30682;BME280;17439;48.092;11.842;2022-11-21T09:12:36;94562.53;;;6.93;68.97
30682;BME280;17439;48.092;11.842;2022-11-21T09:15:04;94565.22;;;6.93;68.64
30682;BME280;17439;48.092;11.842;2022-11-21T09:17:31;94559.53;;;6.95;68.96
30682;BME280;17439;48.092;11.842;2022-11-21T09:19:58;94557.81;;;6.99;69.29
30682;BME280;17439;48.092;11.842;2022-11-21T09:22:25;94565.41;;;6.97;68.79
30682;BME280;17439;48.092;11.842;2022-11-21T09:24:52;94562.91;;;7.00;69.24
30682;BME280;17439;48.092;11.842;2022-11-21T09:27:19;94569.75;;;7.06;69.73
30682;BME280;17439;48.092;11.842;2022-11-21T09:29:47;94567.72;;;7.12;70.09
30682;BME280;17439;48.092;11.842;2022-11-21T09:32:20;94564.75;;;7.22;70.82
30682;BME280;17439;48.092;11.842;2022-11-21T09:34:47;94567.16;;;7.33;71.10
30682;BME280;17439;48.092;11.842;2022-11-21T09:37:14;94567.38;;;7.45;70.61
30682;BME280;17439;48.092;11.842;2022-11-21T09:39:41;94572.16;;;7.57;69.68
30682;BME280;17439;48.092;11.842;2022-11-21T09:49:54;94563.34;;;7.82;66.96
30682;BME280;17439;48.092;11.842;2022-11-21T09:52:28;94563.69;;;7.90;68.00
30682;BME280;17439;48.092;11.842;2022-11-21T09:55:00;94551.16;;;7.94;67.54
30682;BME280;17439;48.092;11.842;2022-11-21T09:57:31;94546.22;;;7.96;67.85
30682;BME280;17439;48.092;11.842;2022-11-21T10:00:05;94549.22;;;8.03;68.15
30682;BME280;17439;48.092;11.842;2022-11-21T10:02:40;94547.34;;;8.04;66.71
30682;BME280;17439;48.092;11.842;2022-11-21T10:05:12;94541.47;;;8.10;65.79
30682;BME280;17439;48.092;11.842;2022-11-21T10:07:41;94533.84;;;8.12;66.84
30682;BME280;17439;48.092;11.842;2022-11-21T10:13:09;94529.56;;;8.20;66.60
30682;BME280;17439;48.092;11.842;2022-11-21T10:15:55;94525.91;;;8.25;66.39
30682;BME280;17439;48.092;11.842;2022-11-21T10:19:26;94527.19;;;8.27;64.09
30682;BME280;17439;48.092;11.842;2022-11-21T10:21:58;94531.78;;;8.35;65.67
30682;BME280;17439;48.092;11.842;2022-11-21T10:24:39;94528.59;;;8.42;66.11
30682;BME280;17439;48.092;11.842;2022-11-21T10:27:29;94535.16;;;8.50;65.87
30682;BME280;17439;48.092;11.842;2022-11-21T10:30:02;94522.88;;;8.61;68.00
30682;BME280;17439;48.092;11.842;2022-11-21T10:32:45;94523.66;;;8.70;65.72
30682;BME280;17439;48.092;11.842;2022-11-21T10:35:15;94519.84;;;8.80;67.58
30682;BME280;17439;48.092;11.842;2022-11-21T10:37:58;94526.16;;;8.84;64.03
30682;BME280;17439;48.092;11.842;2022-11-21T10:40:38;94518.22;;;8.88;63.77
30682;BME280;17439;48.092;11.842;2022-11-21T10:43:08;94510.56;;;8.90;66.49
30682;BME280;17439;48.092;11.842;2022-11-21T10:45:41;94499.44;;;8.92;66.11
30682;BME280;17439;48.092;11.842;2022-11-21T10:48:09;94494.03;;;8.92;65.88
30682;BME280;17439;48.092;11.842;2022-11-21T10:50:49;94498.16;;;8.98;64.46
30682;BME280;17439;48.092;11.842;2022-11-21T10:53:24;94493.03;;;9.05;66.30
30682;BME280;17439;48.092;11.842;2022-11-21T10:58:35;94484.88;;;9.14;64.18
30682;BME280;17439;48.092;11.842;2022-11-21T11:01:05;94480.56;;;9.21;66.55
30682;BME280;17439;48.092;11.842;2022-11-21T11:03:33;94481.16;;;9.27;66.87
30682;BME280;17439;48.092;11.842;2022-11-21T11:06:00;94483.22;;;9.30;65.96
30682;BME280;17439;48.092;11.842;2022-11-21T11:08:27;94472.88;;;9.32;66.24
30682;BME280;17439;48.092;11.842;2022-11-21T11:11:04;94474.44;;;9.33;63.48
30682;BME280;17439;48.092;11.842;2022-11-21T11:13:31;94465.69;;;9.36;66.39
30682;BME280;17439;48.092;11.842;2022-11-21T11:16:18;94467.59;;;9.36;65.24
30682;BME280;17439;48.092;11.842;2022-11-21T11:21:50;94449.25;;;9.41;64.67
30682;BME280;17439;48.092;11.842;2022-11-21T11:29:28;94430.47;;;9.45;64.61
30682;BME280;17439;48.092;11.842;2022-11-21T11:32:17;94433.03;;;9.41;63.65
30682;BME280;17439;48.092;11.842;2022-11-21T11:34:57;94433.03;;;9.41;64.56
30682;BME280;17439;48.092;11.842;2022-11-21T11:37:37;94426.72;;;9.37;64.50
30682;BME280;17439;48.092;11.842;2022-11-21T11:40:24;94421.50;;;9.32;63.75
30682;BME280;17439;48.092;11.842;2022-11-21T11:43:51;94412.75;;;9.26;63.64
30682;BME280;17439;48.092;11.842;2022-11-21T11:46:17;94411.16;;;9.25;66.57
30682;BME280;17439;48.092;11.842;2022-11-21T11:48:48;94409.94;;;9.23;66.72
30682;BME280;17439;48.092;11.842;2022-11-21T11:51:41;94413.28;;;9.20;66.10
30682;BME280;17439;48.092;11.842;2022-11-21T11:54:22;94412.34;;;9.16;64.23
30682;BME280;17439;48.092;11.842;2022-11-21T11:56:50;94410.78;;;9.15;66.85
30682;BME280;17439;48.092;11.842;2022-11-21T11:59:30;94394.56;;;9.15;64.34
30682;BME280;17439;48.092;11.842;2022-11-21T12:02:03;94398.03;;;9.15;66.25
30682;BME280;17439;48.092;11.842;2022-11-21T12:07:20;94399.28;;;9.18;64.60
30682;BME280;17439;48.092;11.842;2022-11-21T12:10:17;94402.16;;;9.21;63.61
30682;BME280;17439;48.092;11.842;2022-11-21T12:13:03;94400.22;;;9.22;65.59
30682;BME280;17439;48.092;11.842;2022-11-21T12:15:40;94404.53;;;9.23;65.05
30682;BME280;17439;48.092;11.842;2022-11-21T12:23:44;94400.63;;;9.12;64.41
30682;BME280;17439;48.092;11.842;2022-11-21T12:32:00;94375.19;;;9.04;64.83
30682;BME280;17439;48.092;11.842;2022-11-21T12:37:17;94363.22;;;9.14;65.91
30682;BME280;17439;48.092;11.842;2022-11-21T12:45:51;94343.38;;;9.31;64.18
30682;BME280;17439;48.092;11.842;2022-11-21T12:57:14;94323.44;;;9.35;62.68
30682;BME280;17439;48.092;11.842;2022-11-21T13:02:49;94313.88;;;9.38;62.42
30682;BME280;17439;48.092;11.842;2022-11-21T13:05:26;94309.06;;;9.43;65.21
30682;BME280;17439;48.092;11.842;2022-11-21T13:08:10;94317.66;;;9.46;61.57
30682;BME280;17439;48.092;11.842;2022-11-21T13:10:44;94315.66;;;9.55;65.22
30682;BME280;17439;48.092;11.842;2022-11-21T13:13:29;94306.56;;;9.59;61.34
30682;BME280;17439;48.092;11.842;2022-11-21T13:16:05;94301.06;;;9.68;63.11
30682;BME280;17439;48.092;11.842;2022-11-21T13:18:43;94296.34;;;9.77;64.03
30682;BME280;17439;48.092;11.842;2022-11-21T13:21:40;94285.09;;;9.88;63.65
30682;BME280;17439;48.092;11.842;2022-11-21T13:24:08;94290.44;;;9.96;66.33
30682;BME280;17439;48.092;11.842;2022-11-21T13:29:10;94279.75;;;10.12;63.96
30682;BME280;17439;48.092;11.842;2022-11-21T13:31:39;94278.41;;;10.19;65.54
30682;BME280;17439;48.092;11.842;2022-11-21T13:34:33;94275.69;;;10.19;63.74
30682;BME280;17439;48.092;11.842;2022-11-21T13:37:01;94283.03;;;10.18;65.01
30682;BME280;17439;48.092;11.842;2022-11-21T13:39:33;94268.69;;;10.17;63.86
30682;BME280;17439;48.092;11.842;2022-11-21T13:42:05;94267.47;;;10.15;63.60
30682;BME280;17439;48.092;11.842;2022-11-21T13:44:38;94257.50;;;10.07;60.17
30682;BME280;17439;48.092;11.842;2022-11-21T13:52:12;94255.13;;;9.93;60.50
30682;BME280;17439;48.092;11.842;2022-11-21T14:04:03;94246.94;;;9.68;61.67
30682;BME280;17439;48.092;11.842;2022-11-21T14:06:40;94246.03;;;9.64;62.20
30682;BME280;17439;48.092;11.842;2022-11-21T14:09:18;94230.91;;;9.63;62.67
30682;BME280;17439;48.092;11.842;2022-11-21T14:14:23;94225.13;;;9.52;59.21
30682;BME280;17439;48.092;11.842;2022-11-21T14:16:53;94231.06;;;9.46;60.98
30682;BME280;17439;48.092;11.842;2022-11-21T14:19:24;94219.59;;;9.49;64.35
30682;BME280;17439;48.092;11.842;2022-11-21T14:21:53;94223.75;;;9.46;64.34
30682;BME280;17439;48.092;11.842;2022-11-21T14:24:21;94219.81;;;9.43;64.35
30682;BME280;17439;48.092;11.842;2022-11-21T14:26:50;94219.53;;;9.36;63.78
30682;BME280;17439;48.092;11.842;2022-11-21T14:29:36;94211.31;;;9.33;64.06
30682;BME280;17439;48.092;11.842;2022-11-21T14:32:04;94206.44;;;9.26;64.01
30682;BME280;17439;48.092;11.842;2022-11-21T14:34:31;94209.34;;;9.21;64.12